sensor_id;sensor_type;location;lat;lon;timestamp;P1;durP1;ratioP1;P2;durP2;ratioP2
2598;SDS011;1309;48.810;8.954;2023-02-24T00:02:17;30.70;;;16.37;;
2598;SDS011;1309;48.810;8.954;2023-02-24T00:04:47;37.97;;;19.60;;
2598;SDS011;1309;48.810;8.954;2023-02-24T00:07:20;30.17;;;16.53;;
2598;SDS011;1309;48.810;8.954;2023-02-24T00:09:50;31.30;;;15.47;;
2598;SDS011;1309;48.810;8.954;2023-02-24T00:12:19;26.60;;;16.70;;
2598;SDS011;1309;48.810;8.954;2023-02-24T00:14:49;26.70;;;16.37;;
2598;SDS011;1309;48.810;8.954;2023-02-24T00:17:18;29.47;;;17.03;;
2598;SDS011;1309;48.810;8.954;2023-02-24T00:19:53;35.27;;;17.73;;
2598;SDS011;1309;48.810;8.954;2023-02-24T00:22:23;33.30;;;16.50;;
2598;SDS011;1309;48.810;8.954;2023-02-24T00:24:52;27.10;;;14.67;;
2598;SDS011;1309;48.810;8.954;2023-02-24T00:30:08;23.23;;;14.50;;
2598;SDS011;1309;48.810;8.954;2023-02-24T00:32:40;28.83;;;15.43;;
2598;SDS011;1309;48.810;8.954;2023-02-24T00:35:09;31.60;;;15.00;;
2598;SDS011;1309;48.810;8.954;2023-02-24T00:37:37;25.30;;;13.03;;
2598;SDS011;1309;48.810;8.954;2023-02-24T00:40:06;24.30;;;14.43;;
2598;SDS011;1309;48.810;8.954;2023-02-24T00:42:40;22.30;;;11.63;;
2598;SDS011;1309;48.810;8.954;2023-02-24T00:45:08;26.17;;;14.70;;
2598;SDS011;1309;48.810;8.954;2023-02-24T00:47:44;27.70;;;14.10;;
2598;SDS011;1309;48.810;8.954;2023-02-24T00:50:12;26.07;;;14.17;;
2598;SDS011;1309;48.810;8.954;2023-02-24T00:52:47;27.63;;;13.73;;
2598;SDS011;1309;48.810;8.954;2023-02-24T00:55:18;21.63;;;13.13;;
2598;SDS011;1309;48.810;8.954;2023-02-24T00:57:51;25.73;;;14.00;;
2598;SDS011;1309;48.810;8.954;2023-02-24T01:00:20;27.93;;;13.93;;
2598;SDS011;1309;48.810;8.954;2023-02-24T01:02:48;24.87;;;14.13;;
2598;SDS011;1309;48.810;8.954;2023-02-24T01:05:18;24.37;;;14.63;;
2598;SDS011;1309;48.810;8.954;2023-02-24T01:07:57;27.30;;;13.87;;
2598;SDS011;1309;48.810;8.954;2023-02-24T01:10:53;31.10;;;15.50;;
2598;SDS011;1309;48.810;8.954;2023-02-24T01:13:44;23.53;;;13.80;;
2598;SDS011;1309;48.810;8.954;2023-02-24T01:16:11;22.87;;;13.50;;
2598;SDS011;1309;48.810;8.954;2023-02-24T01:18:45;32.37;;;16.80;;
2598;SDS011;1309;48.810;8.954;2023-02-24T01:21:20;28.87;;;15.37;;
2598;SDS011;1309;48.810;8.954;2023-02-24T01:23:50;21.30;;;15.03;;
2598;SDS011;1309;48.810;8.954;2023-02-24T01:26:21;30.87;;;16.97;;
2598;SDS011;1309;48.810;8.954;2023-02-24T01:28:52;27.10;;;14.30;;
2598;SDS011;1309;48.810;8.954;2023-02-24T01:31:21;31.73;;;17.90;;
2598;SDS011;1309;48.810;8.954;2023-02-24T01:33:54;30.20;;;16.53;;
2598;SDS011;1309;48.810;8.954;2023-02-24T01:36:25;26.50;;;15.30;;
2598;SDS011;1309;48.810;8.954;2023-02-24T01:38:55;29.73;;;14.33;;
2598;SDS011;1309;48.810;8.954;2023-02-24T01:41:26;25.27;;;15.43;;
2598;SDS011;1309;48.810;8.954;2023-02-24T01:44:03;27.17;;;15.47;;
2598;SDS011;1309;48.810;8.954;2023-02-24T01:46:35;29.17;;;15.27;;
2598;SDS011;1309;48.810;8.954;2023-02-24T01:49:04;27.03;;;15.60;;
2598;SDS011;1309;48.810;8.954;2023-02-24T01:51:37;32.90;;;16.50;;
2598;SDS011;1309;48.810;8.954;2023-02-24T01:54:11;25.70;;;14.77;;
2598;SDS011;1309;48.810;8.954;2023-02-24T01:56:42;28.77;;;16.53;;
2598;SDS011;1309;48.810;8.954;2023-02-24T01:59:16;28.50;;;15.43;;
2598;SDS011;1309;48.810;8.954;2023-02-24T02:01:45;28.73;;;15.67;;
2598;SDS011;1309;48.810;8.954;2023-02-24T02:04:14;31.40;;;16.60;;
2598;SDS011;1309;48.810;8.954;2023-02-24T02:07:01;27.80;;;16.10;;
2598;SDS011;1309;48.810;8.954;2023-02-24T02:09:30;28.20;;;15.40;;
2598;SDS011;1309;48.810;8.954;2023-02-24T02:11:59;29.87;;;16.80;;
2598;SDS011;1309;48.810;8.954;2023-02-24T02:14:36;36.30;;;17.27;;
2598;SDS011;1309;48.810;8.954;2023-02-24T02:17:16;39.13;;;16.30;;
2598;SDS011;1309;48.810;8.954;2023-02-24T02:20:03;34.53;;;16.43;;
2598;SDS011;1309;48.810;8.954;2023-02-24T02:22:47;28.30;;;16.93;;
2598;SDS011;1309;48.810;8.954;2023-02-24T02:25:34;32.60;;;16.37;;
2598;SDS011;1309;48.810;8.954;2023-02-24T02:28:25;34.67;;;16.67;;
2598;SDS011;1309;48.810;8.954;2023-02-24T02:34:15;34.50;;;18.33;;
2598;SDS011;1309;48.810;8.954;2023-02-24T02:36:54;34.67;;;18.17;;
2598;SDS011;1309;48.810;8.954;2023-02-24T02:39:36;40.10;;;19.80;;
2598;SDS011;1309;48.810;8.954;2023-02-24T02:42:16;33.10;;;18.93;;
2598;SDS011;1309;48.810;8.954;2023-02-24T02:44:55;35.33;;;16.90;;
2598;SDS011;1309;48.810;8.954;2023-02-24T02:47:33;29.30;;;16.90;;
2598;SDS011;1309;48.810;8.954;2023-02-24T02:50:06;32.97;;;18.37;;
2598;SDS011;1309;48.810;8.954;2023-02-24T02:52:38;37.53;;;16.87;;
2598;SDS011;1309;48.810;8.954;2023-02-24T02:55:08;37.07;;;19.20;;
2598;SDS011;1309;48.810;8.954;2023-02-24T02:57:42;34.47;;;18.50;;
2598;SDS011;1309;48.810;8.954;2023-02-24T03:00:14;32.00;;;19.30;;
2598;SDS011;1309;48.810;8.954;2023-02-24T03:02:50;41.80;;;18.57;;
2598;SDS011;1309;48.810;8.954;2023-02-24T03:05:24;33.03;;;18.17;;
2598;SDS011;1309;48.810;8.954;2023-02-24T03:08:03;34.27;;;16.47;;
2598;SDS011;1309;48.810;8.954;2023-02-24T03:10:37;41.13;;;18.33;;
2598;SDS011;1309;48.810;8.954;2023-02-24T03:13:10;35.00;;;18.20;;
2598;SDS011;1309;48.810;8.954;2023-02-24T03:15:42;36.93;;;18.30;;
2598;SDS011;1309;48.810;8.954;2023-02-24T03:18:12;39.80;;;20.30;;
2598;SDS011;1309;48.810;8.954;2023-02-24T03:20:48;36.07;;;17.97;;
2598;SDS011;1309;48.810;8.954;2023-02-24T03:23:18;33.87;;;16.93;;
2598;SDS011;1309;48.810;8.954;2023-02-24T03:25:53;32.50;;;17.17;;
2598;SDS011;1309;48.810;8.954;2023-02-24T03:28:26;42.40;;;18.47;;
2598;SDS011;1309;48.810;8.954;2023-02-24T03:31:09;34.93;;;18.13;;
2598;SDS011;1309;48.810;8.954;2023-02-24T03:33:45;35.93;;;18.57;;
2598;SDS011;1309;48.810;8.954;2023-02-24T03:36:18;33.57;;;17.60;;
2598;SDS011;1309;48.810;8.954;2023-02-24T03:38:48;35.23;;;18.80;;
2598;SDS011;1309;48.810;8.954;2023-02-24T03:41:24;40.63;;;19.40;;
2598;SDS011;1309;48.810;8.954;2023-02-24T03:43:55;58.63;;;21.57;;
2598;SDS011;1309;48.810;8.954;2023-02-24T03:46:25;51.03;;;20.20;;
2598;SDS011;1309;48.810;8.954;2023-02-24T03:49:01;44.07;;;20.80;;
2598;SDS011;1309;48.810;8.954;2023-02-24T03:51:35;37.33;;;19.00;;
2598;SDS011;1309;48.810;8.954;2023-02-24T03:54:13;45.17;;;22.40;;
2598;SDS011;1309;48.810;8.954;2023-02-24T03:56:48;39.30;;;18.67;;
2598;SDS011;1309;48.810;8.954;2023-02-24T03:59:28;42.23;;;20.07;;
2598;SDS011;1309;48.810;8.954;2023-02-24T04:02:06;39.93;;;19.03;;
2598;SDS011;1309;48.810;8.954;2023-02-24T04:04:41;41.43;;;19.43;;
2598;SDS011;1309;48.810;8.954;2023-02-24T04:07:13;36.00;;;17.80;;
2598;SDS011;1309;48.810;8.954;2023-02-24T04:09:46;37.23;;;20.77;;
2598;SDS011;1309;48.810;8.954;2023-02-24T04:12:17;45.47;;;20.17;;
2598;SDS011;1309;48.810;8.954;2023-02-24T04:14:51;42.77;;;20.60;;
2598;SDS011;1309;48.810;8.954;2023-02-24T04:17:24;38.97;;;19.13;;
2598;SDS011;1309;48.810;8.954;2023-02-24T04:19:54;48.07;;;20.90;;
2598;SDS011;1309;48.810;8.954;2023-02-24T04:22:29;40.00;;;20.13;;
2598;SDS011;1309;48.810;8.954;2023-02-24T04:25:10;42.13;;;18.50;;
2598;SDS011;1309;48.810;8.954;2023-02-24T04:27:41;32.73;;;18.10;;
2598;SDS011;1309;48.810;8.954;2023-02-24T04:30:18;38.77;;;19.73;;
2598;SDS011;1309;48.810;8.954;2023-02-24T04:32:47;40.10;;;19.10;;
2598;SDS011;1309;48.810;8.954;2023-02-24T04:35:20;40.10;;;19.67;;
2598;SDS011;1309;48.810;8.954;2023-02-24T04:37:52;42.13;;;20.83;;
2598;SDS011;1309;48.810;8.954;2023-02-24T04:40:26;40.53;;;19.60;;
2598;SDS011;1309;48.810;8.954;2023-02-24T04:42:54;38.83;;;19.63;;
2598;SDS011;1309;48.810;8.954;2023-02-24T04:45:25;44.93;;;20.60;;
2598;SDS011;1309;48.810;8.954;2023-02-24T04:47:57;46.57;;;22.87;;
2598;SDS011;1309;48.810;8.954;2023-02-24T04:50:30;49.03;;;20.77;;
2598;SDS011;1309;48.810;8.954;2023-02-24T04:53:01;43.93;;;20.03;;
2598;SDS011;1309;48.810;8.954;2023-02-24T04:55:35;46.70;;;20.27;;
2598;SDS011;1309;48.810;8.954;2023-02-24T04:58:16;62.87;;;23.80;;
2598;SDS011;1309;48.810;8.954;2023-02-24T05:00:46;51.17;;;21.10;;
2598;SDS011;1309;48.810;8.954;2023-02-24T05:03:18;39.73;;;22.23;;
2598;SDS011;1309;48.810;8.954;2023-02-24T05:05:55;51.47;;;22.73;;
2598;SDS011;1309;48.810;8.954;2023-02-24T05:08:27;45.23;;;19.73;;
2598;SDS011;1309;48.810;8.954;2023-02-24T05:10:57;43.30;;;22.20;;
2598;SDS011;1309;48.810;8.954;2023-02-24T05:13:30;40.73;;;20.00;;
2598;SDS011;1309;48.810;8.954;2023-02-24T05:16:02;46.67;;;22.10;;
2598;SDS011;1309;48.810;8.954;2023-02-24T05:18:34;41.37;;;22.23;;
2598;SDS011;1309;48.810;8.954;2023-02-24T05:21:06;50.10;;;23.30;;
2598;SDS011;1309;48.810;8.954;2023-02-24T05:23:57;46.83;;;21.77;;
2598;SDS011;1309;48.810;8.954;2023-02-24T05:26:29;46.97;;;21.23;;
2598;SDS011;1309;48.810;8.954;2023-02-24T05:29:02;39.30;;;19.37;;
2598;SDS011;1309;48.810;8.954;2023-02-24T05:31:32;38.77;;;20.50;;
2598;SDS011;1309;48.810;8.954;2023-02-24T05:34:00;45.73;;;21.60;;
2598;SDS011;1309;48.810;8.954;2023-02-24T05:36:30;42.60;;;20.27;;
2598;SDS011;1309;48.810;8.954;2023-02-24T05:39:00;44.97;;;22.53;;
2598;SDS011;1309;48.810;8.954;2023-02-24T05:41:33;40.23;;;19.67;;
2598;SDS011;1309;48.810;8.954;2023-02-24T05:44:05;39.07;;;20.50;;
2598;SDS011;1309;48.810;8.954;2023-02-24T05:46:36;32.43;;;18.80;;
2598;SDS011;1309;48.810;8.954;2023-02-24T05:49:09;40.07;;;17.93;;
2598;SDS011;1309;48.810;8.954;2023-02-24T05:51:40;36.50;;;19.17;;
2598;SDS011;1309;48.810;8.954;2023-02-24T05:54:17;40.47;;;20.57;;
2598;SDS011;1309;48.810;8.954;2023-02-24T05:56:49;53.73;;;20.03;;
2598;SDS011;1309;48.810;8.954;2023-02-24T05:59:19;34.10;;;20.10;;
2598;SDS011;1309;48.810;8.954;2023-02-24T06:01:49;34.50;;;19.53;;
2598;SDS011;1309;48.810;8.954;2023-02-24T06:04:21;50.93;;;20.47;;
2598;SDS011;1309;48.810;8.954;2023-02-24T06:07:05;38.40;;;16.77;;
2598;SDS011;1309;48.810;8.954;2023-02-24T06:09:35;32.33;;;18.47;;
2598;SDS011;1309;48.810;8.954;2023-02-24T06:12:06;45.83;;;19.73;;
2598;SDS011;1309;48.810;8.954;2023-02-24T06:14:34;30.33;;;15.97;;
2598;SDS011;1309;48.810;8.954;2023-02-24T06:17:02;37.83;;;18.03;;
2598;SDS011;1309;48.810;8.954;2023-02-24T06:19:31;41.83;;;19.47;;
2598;SDS011;1309;48.810;8.954;2023-02-24T06:22:03;40.03;;;18.43;;
2598;SDS011;1309;48.810;8.954;2023-02-24T06:24:37;47.53;;;19.90;;
2598;SDS011;1309;48.810;8.954;2023-02-24T06:27:09;37.63;;;19.23;;
2598;SDS011;1309;48.810;8.954;2023-02-24T06:29:44;44.43;;;19.40;;
2598;SDS011;1309;48.810;8.954;2023-02-24T06:32:15;50.30;;;21.10;;
2598;SDS011;1309;48.810;8.954;2023-02-24T06:34:49;47.13;;;21.03;;
2598;SDS011;1309;48.810;8.954;2023-02-24T06:37:20;51.07;;;23.80;;
2598;SDS011;1309;48.810;8.954;2023-02-24T06:39:50;47.73;;;21.83;;
2598;SDS011;1309;48.810;8.954;2023-02-24T06:42:19;49.80;;;19.07;;
2598;SDS011;1309;48.810;8.954;2023-02-24T06:44:47;43.93;;;20.37;;
2598;SDS011;1309;48.810;8.954;2023-02-24T06:47:15;51.13;;;23.70;;
2598;SDS011;1309;48.810;8.954;2023-02-24T06:49:45;44.63;;;19.43;;
2598;SDS011;1309;48.810;8.954;2023-02-24T06:52:13;52.83;;;21.37;;
2598;SDS011;1309;48.810;8.954;2023-02-24T06:54:46;48.43;;;22.60;;
2598;SDS011;1309;48.810;8.954;2023-02-24T06:57:17;49.60;;;21.40;;
2598;SDS011;1309;48.810;8.954;2023-02-24T06:59:48;54.77;;;23.00;;
2598;SDS011;1309;48.810;8.954;2023-02-24T07:02:17;38.80;;;20.37;;
2598;SDS011;1309;48.810;8.954;2023-02-24T07:04:46;41.17;;;19.40;;
2598;SDS011;1309;48.810;8.954;2023-02-24T07:07:16;44.63;;;19.03;;
2598;SDS011;1309;48.810;8.954;2023-02-24T07:09:45;49.63;;;20.57;;
2598;SDS011;1309;48.810;8.954;2023-02-24T07:12:13;58.97;;;24.17;;
2598;SDS011;1309;48.810;8.954;2023-02-24T07:14:48;53.97;;;24.63;;
2598;SDS011;1309;48.810;8.954;2023-02-24T07:17:16;51.50;;;22.20;;
2598;SDS011;1309;48.810;8.954;2023-02-24T07:19:47;52.20;;;20.30;;
2598;SDS011;1309;48.810;8.954;2023-02-24T07:22:15;50.10;;;20.80;;
2598;SDS011;1309;48.810;8.954;2023-02-24T07:24:51;45.97;;;19.70;;
2598;SDS011;1309;48.810;8.954;2023-02-24T07:27:26;51.10;;;23.97;;
2598;SDS011;1309;48.810;8.954;2023-02-24T07:29:55;51.63;;;21.57;;
2598;SDS011;1309;48.810;8.954;2023-02-24T07:32:26;44.43;;;20.83;;
2598;SDS011;1309;48.810;8.954;2023-02-24T07:34:56;50.37;;;20.90;;
2598;SDS011;1309;48.810;8.954;2023-02-24T07:37:24;39.90;;;18.30;;
2598;SDS011;1309;48.810;8.954;2023-02-24T07:39:57;45.37;;;19.80;;
2598;SDS011;1309;48.810;8.954;2023-02-24T07:42:25;45.27;;;18.73;;
2598;SDS011;1309;48.810;8.954;2023-02-24T07:44:57;45.27;;;20.07;;
2598;SDS011;1309;48.810;8.954;2023-02-24T07:47:25;52.33;;;22.53;;
2598;SDS011;1309;48.810;8.954;2023-02-24T07:49:54;46.83;;;19.93;;
2598;SDS011;1309;48.810;8.954;2023-02-24T07:52:22;38.37;;;18.30;;
2598;SDS011;1309;48.810;8.954;2023-02-24T07:54:53;44.73;;;18.00;;
2598;SDS011;1309;48.810;8.954;2023-02-24T07:57:21;37.90;;;17.40;;
2598;SDS011;1309;48.810;8.954;2023-02-24T07:59:51;35.17;;;18.03;;
2598;SDS011;1309;48.810;8.954;2023-02-24T08:02:24;45.23;;;20.47;;
2598;SDS011;1309;48.810;8.954;2023-02-24T08:04:55;39.77;;;19.47;;
2598;SDS011;1309;48.810;8.954;2023-02-24T08:07:28;38.43;;;15.90;;
2598;SDS011;1309;48.810;8.954;2023-02-24T08:09:58;37.07;;;16.43;;
2598;SDS011;1309;48.810;8.954;2023-02-24T08:12:50;31.43;;;13.43;;
2598;SDS011;1309;48.810;8.954;2023-02-24T08:15:28;31.73;;;15.00;;
2598;SDS011;1309;48.810;8.954;2023-02-24T08:18:01;29.13;;;13.90;;
2598;SDS011;1309;48.810;8.954;2023-02-24T08:20:32;33.57;;;15.33;;
2598;SDS011;1309;48.810;8.954;2023-02-24T08:23:17;31.23;;;14.93;;
2598;SDS011;1309;48.810;8.954;2023-02-24T08:25:48;30.97;;;14.20;;
2598;SDS011;1309;48.810;8.954;2023-02-24T08:28:17;26.90;;;13.70;;
2598;SDS011;1309;48.810;8.954;2023-02-24T08:30:45;30.67;;;14.17;;
2598;SDS011;1309;48.810;8.954;2023-02-24T08:33:23;25.30;;;13.27;;
2598;SDS011;1309;48.810;8.954;2023-02-24T08:35:58;26.90;;;13.63;;
2598;SDS011;1309;48.810;8.954;2023-02-24T08:38:29;29.77;;;13.00;;
2598;SDS011;1309;48.810;8.954;2023-02-24T08:41:11;28.47;;;13.73;;
2598;SDS011;1309;48.810;8.954;2023-02-24T08:43:44;25.43;;;13.50;;
2598;SDS011;1309;48.810;8.954;2023-02-24T08:46:17;27.20;;;11.67;;
2598;SDS011;1309;48.810;8.954;2023-02-24T08:48:56;23.97;;;11.67;;
2598;SDS011;1309;48.810;8.954;2023-02-24T08:51:31;22.10;;;12.50;;
2598;SDS011;1309;48.810;8.954;2023-02-24T08:54:09;29.43;;;12.83;;
2598;SDS011;1309;48.810;8.954;2023-02-24T08:56:41;25.00;;;12.90;;
2598;SDS011;1309;48.810;8.954;2023-02-24T08:59:16;23.47;;;11.93;;
2598;SDS011;1309;48.810;8.954;2023-02-24T09:02:04;18.00;;;11.33;;
2598;SDS011;1309;48.810;8.954;2023-02-24T09:04:51;20.23;;;9.50;;
2598;SDS011;1309;48.810;8.954;2023-02-24T09:07:22;23.17;;;11.40;;
2598;SDS011;1309;48.810;8.954;2023-02-24T09:09:54;23.90;;;10.70;;
2598;SDS011;1309;48.810;8.954;2023-02-24T09:12:26;26.00;;;10.80;;
2598;SDS011;1309;48.810;8.954;2023-02-24T09:14:58;26.10;;;12.23;;
2598;SDS011;1309;48.810;8.954;2023-02-24T09:17:31;19.07;;;9.97;;
2598;SDS011;1309;48.810;8.954;2023-02-24T09:20:20;23.23;;;10.53;;
2598;SDS011;1309;48.810;8.954;2023-02-24T09:23:06;25.03;;;11.73;;
2598;SDS011;1309;48.810;8.954;2023-02-24T09:25:50;21.33;;;10.40;;
2598;SDS011;1309;48.810;8.954;2023-02-24T09:28:20;20.60;;;10.50;;
2598;SDS011;1309;48.810;8.954;2023-02-24T09:30:55;30.53;;;11.00;;
2598;SDS011;1309;48.810;8.954;2023-02-24T09:33:25;24.10;;;11.37;;
2598;SDS011;1309;48.810;8.954;2023-02-24T09:36:02;17.40;;;8.30;;
2598;SDS011;1309;48.810;8.954;2023-02-24T09:38:36;20.67;;;9.87;;
2598;SDS011;1309;48.810;8.954;2023-02-24T09:41:26;23.50;;;11.43;;
2598;SDS011;1309;48.810;8.954;2023-02-24T09:44:02;21.43;;;12.13;;
2598;SDS011;1309;48.810;8.954;2023-02-24T09:46:37;27.83;;;11.67;;
2598;SDS011;1309;48.810;8.954;2023-02-24T09:49:21;25.93;;;10.97;;
2598;SDS011;1309;48.810;8.954;2023-02-24T09:51:53;18.73;;;8.50;;
2598;SDS011;1309;48.810;8.954;2023-02-24T09:54:28;19.10;;;9.37;;
2598;SDS011;1309;48.810;8.954;2023-02-24T09:57:02;22.60;;;10.03;;
2598;SDS011;1309;48.810;8.954;2023-02-24T09:59:39;18.77;;;9.20;;
2598;SDS011;1309;48.810;8.954;2023-02-24T10:02:32;25.60;;;10.20;;
2598;SDS011;1309;48.810;8.954;2023-02-24T10:05:14;26.30;;;10.67;;
2598;SDS011;1309;48.810;8.954;2023-02-24T10:07:51;21.37;;;11.43;;
2598;SDS011;1309;48.810;8.954;2023-02-24T10:10:26;26.33;;;10.17;;
2598;SDS011;1309;48.810;8.954;2023-02-24T10:13:01;25.40;;;10.70;;
2598;SDS011;1309;48.810;8.954;2023-02-24T10:15:40;22.57;;;11.00;;
2598;SDS011;1309;48.810;8.954;2023-02-24T10:18:36;23.00;;;10.33;;
2598;SDS011;1309;48.810;8.954;2023-02-24T10:21:12;23.13;;;11.13;;
2598;SDS011;1309;48.810;8.954;2023-02-24T10:23:50;26.13;;;12.37;;
2598;SDS011;1309;48.810;8.954;2023-02-24T10:26:29;30.67;;;14.50;;
2598;SDS011;1309;48.810;8.954;2023-02-24T10:29:30;22.80;;;11.30;;
2598;SDS011;1309;48.810;8.954;2023-02-24T10:32:19;30.40;;;13.13;;
2598;SDS011;1309;48.810;8.954;2023-02-24T10:35:00;29.13;;;13.20;;
2598;SDS011;1309;48.810;8.954;2023-02-24T10:37:41;33.03;;;13.93;;
2598;SDS011;1309;48.810;8.954;2023-02-24T10:40:13;33.30;;;14.33;;
2598;SDS011;1309;48.810;8.954;2023-02-24T10:43:01;42.57;;;14.60;;
2598;SDS011;1309;48.810;8.954;2023-02-24T10:45:37;30.80;;;14.87;;
2598;SDS011;1309;48.810;8.954;2023-02-24T10:48:16;29.20;;;14.57;;
2598;SDS011;1309;48.810;8.954;2023-02-24T10:51:10;31.03;;;15.00;;
2598;SDS011;1309;48.810;8.954;2023-02-24T10:53:46;41.13;;;15.57;;
2598;SDS011;1309;48.810;8.954;2023-02-24T10:56:39;33.33;;;13.57;;
2598;SDS011;1309;48.810;8.954;2023-02-24T10:59:24;32.37;;;15.93;;
2598;SDS011;1309;48.810;8.954;2023-02-24T11:02:24;30.00;;;15.37;;
2598;SDS011;1309;48.810;8.954;2023-02-24T11:04:59;31.47;;;12.27;;
2598;SDS011;1309;48.810;8.954;2023-02-24T11:08:03;25.13;;;12.30;;
2598;SDS011;1309;48.810;8.954;2023-02-24T11:10:40;29.53;;;13.30;;
2598;SDS011;1309;48.810;8.954;2023-02-24T11:13:25;26.57;;;13.00;;
2598;SDS011;1309;48.810;8.954;2023-02-24T11:16:11;33.87;;;13.13;;
2598;SDS011;1309;48.810;8.954;2023-02-24T11:19:01;24.57;;;12.30;;
2598;SDS011;1309;48.810;8.954;2023-02-24T11:21:32;27.27;;;12.40;;
2598;SDS011;1309;48.810;8.954;2023-02-24T11:24:04;23.30;;;12.13;;
2598;SDS011;1309;48.810;8.954;2023-02-24T11:26:40;27.03;;;12.67;;
2598;SDS011;1309;48.810;8.954;2023-02-24T11:29:19;26.53;;;11.80;;
2598;SDS011;1309;48.810;8.954;2023-02-24T11:32:07;27.20;;;15.33;;
2598;SDS011;1309;48.810;8.954;2023-02-24T11:34:44;26.87;;;12.50;;
2598;SDS011;1309;48.810;8.954;2023-02-24T11:37:24;24.73;;;13.07;;
2598;SDS011;1309;48.810;8.954;2023-02-24T11:40:00;28.23;;;13.23;;
2598;SDS011;1309;48.810;8.954;2023-02-24T11:42:32;35.80;;;14.70;;
2598;SDS011;1309;48.810;8.954;2023-02-24T11:45:09;24.87;;;11.83;;
2598;SDS011;1309;48.810;8.954;2023-02-24T11:47:46;22.20;;;12.00;;
2598;SDS011;1309;48.810;8.954;2023-02-24T11:50:24;31.87;;;12.77;;
2598;SDS011;1309;48.810;8.954;2023-02-24T11:52:57;22.17;;;13.33;;
2598;SDS011;1309;48.810;8.954;2023-02-24T11:55:27;26.50;;;12.00;;
2598;SDS011;1309;48.810;8.954;2023-02-24T11:58:02;30.33;;;13.30;;
2598;SDS011;1309;48.810;8.954;2023-02-24T12:00:35;25.37;;;10.90;;
2598;SDS011;1309;48.810;8.954;2023-02-24T12:03:07;34.17;;;13.90;;
2598;SDS011;1309;48.810;8.954;2023-02-24T12:05:46;24.83;;;13.03;;
2598;SDS011;1309;48.810;8.954;2023-02-24T12:08:23;18.20;;;11.43;;
2598;SDS011;1309;48.810;8.954;2023-02-24T12:11:00;24.57;;;11.20;;
2598;SDS011;1309;48.810;8.954;2023-02-24T12:13:35;22.70;;;10.30;;
2598;SDS011;1309;48.810;8.954;2023-02-24T12:16:09;24.03;;;11.50;;
2598;SDS011;1309;48.810;8.954;2023-02-24T12:18:44;25.47;;;11.87;;
2598;SDS011;1309;48.810;8.954;2023-02-24T12:21:14;31.70;;;12.60;;
2598;SDS011;1309;48.810;8.954;2023-02-24T12:23:49;20.67;;;9.70;;
2598;SDS011;1309;48.810;8.954;2023-02-24T12:26:21;21.67;;;9.20;;
2598;SDS011;1309;48.810;8.954;2023-02-24T12:28:57;25.13;;;10.70;;
2598;SDS011;1309;48.810;8.954;2023-02-24T12:31:39;23.27;;;9.57;;
2598;SDS011;1309;48.810;8.954;2023-02-24T12:34:25;19.40;;;8.27;;
2598;SDS011;1309;48.810;8.954;2023-02-24T12:37:15;18.77;;;8.37;;
2598;SDS011;1309;48.810;8.954;2023-02-24T12:39:55;23.13;;;9.50;;
2598;SDS011;1309;48.810;8.954;2023-02-24T12:42:32;26.67;;;8.93;;
2598;SDS011;1309;48.810;8.954;2023-02-24T12:45:07;15.47;;;8.10;;
2598;SDS011;1309;48.810;8.954;2023-02-24T12:47:42;21.87;;;10.27;;
2598;SDS011;1309;48.810;8.954;2023-02-24T12:50:26;16.37;;;7.70;;
2598;SDS011;1309;48.810;8.954;2023-02-24T12:53:00;16.23;;;6.80;;
2598;SDS011;1309;48.810;8.954;2023-02-24T12:55:37;15.40;;;6.33;;
2598;SDS011;1309;48.810;8.954;2023-02-24T12:58:12;12.10;;;6.60;;
2598;SDS011;1309;48.810;8.954;2023-02-24T13:00:50;13.07;;;6.00;;
2598;SDS011;1309;48.810;8.954;2023-02-24T13:03:29;11.40;;;6.07;;
2598;SDS011;1309;48.810;8.954;2023-02-24T13:06:05;15.67;;;6.53;;
2598;SDS011;1309;48.810;8.954;2023-02-24T13:08:50;14.80;;;5.30;;
2598;SDS011;1309;48.810;8.954;2023-02-24T13:11:24;12.70;;;6.77;;
2598;SDS011;1309;48.810;8.954;2023-02-24T13:14:00;12.80;;;4.93;;
2598;SDS011;1309;48.810;8.954;2023-02-24T13:16:34;16.07;;;6.43;;
2598;SDS011;1309;48.810;8.954;2023-02-24T13:19:16;15.63;;;6.50;;
2598;SDS011;1309;48.810;8.954;2023-02-24T13:21:56;12.57;;;6.90;;
2598;SDS011;1309;48.810;8.954;2023-02-24T13:24:28;15.67;;;6.90;;
2598;SDS011;1309;48.810;8.954;2023-02-24T13:27:03;13.73;;;6.60;;
2598;SDS011;1309;48.810;8.954;2023-02-24T13:29:41;13.43;;;7.10;;
2598;SDS011;1309;48.810;8.954;2023-02-24T13:32:25;16.17;;;7.30;;
2598;SDS011;1309;48.810;8.954;2023-02-24T13:35:00;19.83;;;7.57;;
2598;SDS011;1309;48.810;8.954;2023-02-24T13:37:33;16.83;;;7.53;;
2598;SDS011;1309;48.810;8.954;2023-02-24T13:40:17;18.80;;;8.63;;
2598;SDS011;1309;48.810;8.954;2023-02-24T13:42:57;25.17;;;10.00;;
2598;SDS011;1309;48.810;8.954;2023-02-24T13:45:27;18.90;;;8.60;;
2598;SDS011;1309;48.810;8.954;2023-02-24T13:48:09;21.37;;;6.97;;
2598;SDS011;1309;48.810;8.954;2023-02-24T13:50:52;15.70;;;7.73;;
2598;SDS011;1309;48.810;8.954;2023-02-24T13:53:37;16.47;;;7.93;;
2598;SDS011;1309;48.810;8.954;2023-02-24T13:56:22;17.80;;;8.37;;
2598;SDS011;1309;48.810;8.954;2023-02-24T13:59:13;17.63;;;7.13;;
2598;SDS011;1309;48.810;8.954;2023-02-24T14:01:47;17.10;;;7.90;;
2598;SDS011;1309;48.810;8.954;2023-02-24T14:04:29;18.53;;;9.73;;
2598;SDS011;1309;48.810;8.954;2023-02-24T14:07:00;14.67;;;6.93;;
2598;SDS011;1309;48.810;8.954;2023-02-24T14:09:31;17.10;;;6.93;;
2598;SDS011;1309;48.810;8.954;2023-02-24T14:12:02;22.53;;;8.10;;
2598;SDS011;1309;48.810;8.954;2023-02-24T14:14:32;14.17;;;6.73;;
2598;SDS011;1309;48.810;8.954;2023-02-24T14:17:01;10.63;;;6.30;;
2598;SDS011;1309;48.810;8.954;2023-02-24T14:19:35;10.90;;;7.00;;
2598;SDS011;1309;48.810;8.954;2023-02-24T14:22:13;12.10;;;6.87;;
2598;SDS011;1309;48.810;8.954;2023-02-24T14:24:46;14.57;;;7.23;;
2598;SDS011;1309;48.810;8.954;2023-02-24T14:27:21;16.00;;;7.00;;
2598;SDS011;1309;48.810;8.954;2023-02-24T14:29:51;9.33;;;5.80;;
2598;SDS011;1309;48.810;8.954;2023-02-24T14:32:21;12.93;;;6.17;;
2598;SDS011;1309;48.810;8.954;2023-02-24T14:34:51;18.63;;;8.00;;
2598;SDS011;1309;48.810;8.954;2023-02-24T14:37:22;14.70;;;6.37;;
2598;SDS011;1309;48.810;8.954;2023-02-24T14:39:57;17.93;;;7.20;;
2598;SDS011;1309;48.810;8.954;2023-02-24T14:42:31;17.80;;;8.00;;
2598;SDS011;1309;48.810;8.954;2023-02-24T14:44:59;18.30;;;6.93;;
2598;SDS011;1309;48.810;8.954;2023-02-24T14:47:33;13.43;;;6.97;;
2598;SDS011;1309;48.810;8.954;2023-02-24T14:50:13;21.60;;;7.30;;
2598;SDS011;1309;48.810;8.954;2023-02-24T14:52:48;16.77;;;6.40;;
2598;SDS011;1309;48.810;8.954;2023-02-24T14:55:19;16.40;;;7.00;;
2598;SDS011;1309;48.810;8.954;2023-02-24T14:57:54;14.87;;;7.97;;
2598;SDS011;1309;48.810;8.954;2023-02-24T15:00:26;13.23;;;6.53;;
2598;SDS011;1309;48.810;8.954;2023-02-24T15:02:59;20.50;;;7.43;;
2598;SDS011;1309;48.810;8.954;2023-02-24T15:05:39;13.27;;;7.80;;
2598;SDS011;1309;48.810;8.954;2023-02-24T15:08:15;16.73;;;7.10;;
2598;SDS011;1309;48.810;8.954;2023-02-24T15:11:04;16.43;;;8.20;;
2598;SDS011;1309;48.810;8.954;2023-02-24T15:13:38;19.77;;;7.13;;
2598;SDS011;1309;48.810;8.954;2023-02-24T15:16:11;15.60;;;8.33;;
2598;SDS011;1309;48.810;8.954;2023-02-24T15:18:41;22.17;;;7.97;;
2598;SDS011;1309;48.810;8.954;2023-02-24T15:21:14;21.70;;;9.77;;
2598;SDS011;1309;48.810;8.954;2023-02-24T15:26:49;21.17;;;9.17;;
2598;SDS011;1309;48.810;8.954;2023-02-24T15:29:22;21.00;;;8.67;;
2598;SDS011;1309;48.810;8.954;2023-02-24T15:31:52;18.87;;;8.80;;
2598;SDS011;1309;48.810;8.954;2023-02-24T15:34:22;20.40;;;9.47;;
2598;SDS011;1309;48.810;8.954;2023-02-24T15:36:52;18.23;;;9.40;;
2598;SDS011;1309;48.810;8.954;2023-02-24T15:39:27;18.70;;;9.70;;
2598;SDS011;1309;48.810;8.954;2023-02-24T15:42:05;15.30;;;9.03;;
2598;SDS011;1309;48.810;8.954;2023-02-24T15:44:34;21.00;;;10.17;;
2598;SDS011;1309;48.810;8.954;2023-02-24T15:47:11;19.10;;;10.97;;